To NAV CANADA Home Page Login to a new session Search on AWWS site Feedback and Comments Disclaimer Vers la page française équivalente Tips FAQ What's new on the site To the Forecasts and Observations / NOTAM section To "File a Flight Plan" website Publications and other links Update of the User's profile FIC Telephone Numbers My Weather Data Folder Route Weather Data Regional Weather Data Local Weather Data To the Forecasts and Observations / NOTAM section
Request Generated 09/03/2015 at 08:47:06 UTC . Weather information available at that time is displayed.

METAR/TAF

MONCTON/GREATER MONCTON INTL/NB    

METAR CYQM 030800Z 22008KT 8SM VCFG FEW002 17/17 A2973 RMK SF1 VIS SE
- SW 11/2 SLP068 DENSITY ALT 700FT=
METAR CYQM 030700Z 22006KT 8SM VCFG FEW120 SCT250 17/17 A2973 RMK
AC2CI1 VIS SE - SW 2 SLP066 DENSITY ALT 700FT=
METAR CYQM 030600Z 23007KT 8SM VCFG SKC 18/17 A2974 RMK VIS SE - SW 2
SLP069 DENSITY ALT 800FT=

TAF CYQM 030539Z 0306/0406 24007KT P6SM FEW030 TEMPO 0306/0311 3SM BR
PROB30 0306/0311 1SM BR BKN004
FM031300 32008KT P6SM FEW040
BECMG 0316/0318 35008KT
BECMG 0319/0321 03012KT
FM040400 31007KT P6SM SCT030
RMK NXT FCST BY 031200Z=
Your time UTC time
Weather data provided by Environment Canada and NAV CANADA